sensor_id;sensor_type;location;lat;lon;timestamp;pressure;altitude;pressure_sealevel;temperature;humidity
12963;BME280;6546;49.882;8.666;2023-06-14T00:02:19;99611.69;;;19.69;37.22
12963;BME280;6546;49.882;8.666;2023-06-14T00:04:45;99608.84;;;19.71;37.36
12963;BME280;6546;49.882;8.666;2023-06-14T00:07:13;99611.91;;;19.68;37.54
12963;BME280;6546;49.882;8.666;2023-06-14T00:09:43;99607.72;;;19.67;37.30
12963;BME280;6546;49.882;8.666;2023-06-14T00:12:10;99612.50;;;19.58;37.49
12963;BME280;6546;49.882;8.666;2023-06-14T00:14:36;99622.69;;;19.43;37.76
12963;BME280;6546;49.882;8.666;2023-06-14T00:17:03;99616.19;;;19.34;38.16
12963;BME280;6546;49.882;8.666;2023-06-14T00:19:32;99617.44;;;19.31;38.03
12963;BME280;6546;49.882;8.666;2023-06-14T00:22:00;99616.41;;;19.32;37.96
12963;BME280;6546;49.882;8.666;2023-06-14T00:24:27;99606.00;;;19.26;38.09
12963;BME280;6546;49.882;8.666;2023-06-14T00:26:55;99610.38;;;19.09;38.33
12963;BME280;6546;49.882;8.666;2023-06-14T00:29:21;99608.78;;;19.08;38.51
12963;BME280;6546;49.882;8.666;2023-06-14T00:31:48;99617.41;;;18.97;38.71
12963;BME280;6546;49.882;8.666;2023-06-14T00:34:14;99611.50;;;18.90;39.16
12963;BME280;6546;49.882;8.666;2023-06-14T00:36:41;99609.91;;;18.88;38.96
12963;BME280;6546;49.882;8.666;2023-06-14T00:39:08;99621.50;;;18.81;39.21
12963;BME280;6546;49.882;8.666;2023-06-14T00:41:35;99617.50;;;18.67;39.51
12963;BME280;6546;49.882;8.666;2023-06-14T00:44:04;99614.53;;;18.63;40.24
12963;BME280;6546;49.882;8.666;2023-06-14T00:46:30;99617.28;;;18.68;39.74
12963;BME280;6546;49.882;8.666;2023-06-14T00:48:58;99614.00;;;18.73;39.48
12963;BME280;6546;49.882;8.666;2023-06-14T00:51:26;99613.75;;;18.74;39.33
12963;BME280;6546;49.882;8.666;2023-06-14T00:53:53;99616.41;;;18.86;38.95
12963;BME280;6546;49.882;8.666;2023-06-14T00:56:20;99612.06;;;18.92;38.73
12963;BME280;6546;49.882;8.666;2023-06-14T00:58:47;99618.78;;;18.87;38.90
12963;BME280;6546;49.882;8.666;2023-06-14T01:01:15;99614.78;;;18.85;38.69
12963;BME280;6546;49.882;8.666;2023-06-14T01:03:41;99611.50;;;18.90;38.69
12963;BME280;6546;49.882;8.666;2023-06-14T01:06:15;99618.09;;;18.80;39.15
12963;BME280;6546;49.882;8.666;2023-06-14T01:08:59;99614.00;;;18.84;39.16
12963;BME280;6546;49.882;8.666;2023-06-14T01:11:31;99614.00;;;18.84;39.26
12963;BME280;6546;49.882;8.666;2023-06-14T01:14:00;99612.53;;;18.77;39.20
12963;BME280;6546;49.882;8.666;2023-06-14T01:16:30;99611.16;;;18.86;39.09
12963;BME280;6546;49.882;8.666;2023-06-14T01:18:58;99621.31;;;18.82;39.43
12963;BME280;6546;49.882;8.666;2023-06-14T01:21:25;99618.09;;;18.80;39.07
12963;BME280;6546;49.882;8.666;2023-06-14T01:23:55;99617.06;;;18.81;38.86
12963;BME280;6546;49.882;8.666;2023-06-14T01:26:22;99613.44;;;18.82;38.52
12963;BME280;6546;49.882;8.666;2023-06-14T01:28:50;99614.78;;;18.85;38.64
12963;BME280;6546;49.882;8.666;2023-06-14T01:31:19;99608.75;;;18.84;38.70
12963;BME280;6546;49.882;8.666;2023-06-14T01:33:47;99612.72;;;18.75;38.53
12963;BME280;6546;49.882;8.666;2023-06-14T01:36:16;99619.94;;;18.80;38.56
12963;BME280;6546;49.882;8.666;2023-06-14T01:38:44;99621.75;;;18.79;38.68
12963;BME280;6546;49.882;8.666;2023-06-14T01:41:16;99619.94;;;18.92;38.57
12963;BME280;6546;49.882;8.666;2023-06-14T01:43:45;99624.34;;;18.68;39.13
12963;BME280;6546;49.882;8.666;2023-06-14T01:46:13;99613.28;;;18.66;39.37
12963;BME280;6546;49.882;8.666;2023-06-14T01:48:41;99622.75;;;18.67;38.91
12963;BME280;6546;49.882;8.666;2023-06-14T01:51:08;99626.63;;;18.64;39.33
12963;BME280;6546;49.882;8.666;2023-06-14T01:53:35;99620.81;;;18.62;39.36
12963;BME280;6546;49.882;8.666;2023-06-14T01:56:02;99611.47;;;18.66;39.14
12963;BME280;6546;49.882;8.666;2023-06-14T01:58:30;99621.03;;;18.61;39.26
12963;BME280;6546;49.882;8.666;2023-06-14T02:00:56;99615.53;;;18.51;39.71
12963;BME280;6546;49.882;8.666;2023-06-14T02:03:23;99619.75;;;18.52;39.81
12963;BME280;6546;49.882;8.666;2023-06-14T02:05:50;99619.25;;;18.43;39.67
12963;BME280;6546;49.882;8.666;2023-06-14T02:08:17;99618.41;;;18.31;40.11
12963;BME280;6546;49.882;8.666;2023-06-14T02:10:43;99618.50;;;18.24;40.39
12963;BME280;6546;49.882;8.666;2023-06-14T02:13:10;99616.97;;;18.17;40.42
12963;BME280;6546;49.882;8.666;2023-06-14T02:15:41;99625.53;;;18.12;40.39
12963;BME280;6546;49.882;8.666;2023-06-14T02:18:09;99622.84;;;18.01;40.49
12963;BME280;6546;49.882;8.666;2023-06-14T02:20:37;99625.91;;;17.98;40.97
12963;BME280;6546;49.882;8.666;2023-06-14T02:23:03;99631.06;;;18.04;41.07
12963;BME280;6546;49.882;8.666;2023-06-14T02:25:30;99631.09;;;18.16;40.52
12963;BME280;6546;49.882;8.666;2023-06-14T02:27:57;99625.63;;;18.06;40.53
12963;BME280;6546;49.882;8.666;2023-06-14T02:30:23;99628.34;;;18.11;40.57
12963;BME280;6546;49.882;8.666;2023-06-14T02:32:51;99639.19;;;18.14;40.48
12963;BME280;6546;49.882;8.666;2023-06-14T02:35:18;99634.84;;;18.08;41.03
12963;BME280;6546;49.882;8.666;2023-06-14T02:37:45;99635.41;;;18.10;41.42
12963;BME280;6546;49.882;8.666;2023-06-14T02:40:12;99636.66;;;18.08;41.20
12963;BME280;6546;49.882;8.666;2023-06-14T02:42:39;99639.28;;;18.08;41.44
12963;BME280;6546;49.882;8.666;2023-06-14T02:45:07;99636.78;;;18.13;40.94
12963;BME280;6546;49.882;8.666;2023-06-14T02:47:33;99632.44;;;18.07;41.00
12963;BME280;6546;49.882;8.666;2023-06-14T02:50:02;99630.03;;;18.05;41.25
12963;BME280;6546;49.882;8.666;2023-06-14T02:52:29;99638.13;;;18.04;41.37
12963;BME280;6546;49.882;8.666;2023-06-14T02:54:55;99641.78;;;18.03;41.35
12963;BME280;6546;49.882;8.666;2023-06-14T02:57:22;99639.56;;;18.00;41.45
12963;BME280;6546;49.882;8.666;2023-06-14T02:59:49;99637.84;;;17.94;41.39
12963;BME280;6546;49.882;8.666;2023-06-14T03:02:17;99638.72;;;17.88;41.45
12963;BME280;6546;49.882;8.666;2023-06-14T03:04:43;99633.47;;;17.88;42.00
12963;BME280;6546;49.882;8.666;2023-06-14T03:07:13;99644.84;;;17.81;41.95
12963;BME280;6546;49.882;8.666;2023-06-14T03:09:45;99644.91;;;17.75;42.32
12963;BME280;6546;49.882;8.666;2023-06-14T03:12:12;99644.84;;;17.81;42.07
12963;BME280;6546;49.882;8.666;2023-06-14T03:14:38;99636.91;;;17.70;42.08
12963;BME280;6546;49.882;8.666;2023-06-14T03:17:05;99648.59;;;17.67;42.46
12963;BME280;6546;49.882;8.666;2023-06-14T03:19:33;99654.28;;;17.64;42.56
12963;BME280;6546;49.882;8.666;2023-06-14T03:22:00;99647.16;;;17.71;42.49
12963;BME280;6546;49.882;8.666;2023-06-14T03:24:29;99656.19;;;17.75;42.51
12963;BME280;6546;49.882;8.666;2023-06-14T03:27:02;99655.38;;;17.75;42.42
12963;BME280;6546;49.882;8.666;2023-06-14T03:29:29;99658.22;;;17.73;42.44
12963;BME280;6546;49.882;8.666;2023-06-14T03:31:57;99669.56;;;17.67;42.68
12963;BME280;6546;49.882;8.666;2023-06-14T03:34:24;99666.00;;;17.62;43.03
12963;BME280;6546;49.882;8.666;2023-06-14T03:36:51;99664.75;;;17.64;43.03
12963;BME280;6546;49.882;8.666;2023-06-14T03:39:18;99672.41;;;17.66;42.90
12963;BME280;6546;49.882;8.666;2023-06-14T03:41:46;99670.34;;;17.68;42.81
12963;BME280;6546;49.882;8.666;2023-06-14T03:44:15;99678.13;;;17.56;43.12
12963;BME280;6546;49.882;8.666;2023-06-14T03:46:42;99686.50;;;17.65;42.85
12963;BME280;6546;49.882;8.666;2023-06-14T03:49:10;99690.72;;;17.66;42.67
12963;BME280;6546;49.882;8.666;2023-06-14T03:51:37;99691.53;;;17.66;42.69
12963;BME280;6546;49.882;8.666;2023-06-14T03:54:05;99697.34;;;17.68;43.02
12963;BME280;6546;49.882;8.666;2023-06-14T03:56:32;99701.84;;;17.61;43.09
12963;BME280;6546;49.882;8.666;2023-06-14T03:58:59;99708.50;;;17.64;43.18
12963;BME280;6546;49.882;8.666;2023-06-14T04:01:26;99709.88;;;17.66;42.93
12963;BME280;6546;49.882;8.666;2023-06-14T04:03:55;99707.81;;;17.68;43.16
12963;BME280;6546;49.882;8.666;2023-06-14T04:06:23;99707.88;;;17.62;43.10
12963;BME280;6546;49.882;8.666;2023-06-14T04:08:50;99711.25;;;17.69;43.12
12963;BME280;6546;49.882;8.666;2023-06-14T04:11:17;99713.72;;;17.64;43.03
12963;BME280;6546;49.882;8.666;2023-06-14T04:13:44;99708.13;;;17.60;43.46
12963;BME280;6546;49.882;8.666;2023-06-14T04:16:13;99713.28;;;17.67;43.31
12963;BME280;6546;49.882;8.666;2023-06-14T04:18:40;99711.63;;;17.72;43.12
12963;BME280;6546;49.882;8.666;2023-06-14T04:21:07;99724.13;;;17.70;43.11
12963;BME280;6546;49.882;8.666;2023-06-14T04:23:33;99723.69;;;17.73;43.19
12963;BME280;6546;49.882;8.666;2023-06-14T04:26:00;99730.38;;;17.69;43.28
12963;BME280;6546;49.882;8.666;2023-06-14T04:28:27;99728.34;;;17.71;43.36
12963;BME280;6546;49.882;8.666;2023-06-14T04:30:55;99726.91;;;17.75;42.93
12963;BME280;6546;49.882;8.666;2023-06-14T04:33:23;99721.03;;;17.80;43.15
12963;BME280;6546;49.882;8.666;2023-06-14T04:35:51;99730.09;;;17.77;43.18
12963;BME280;6546;49.882;8.666;2023-06-14T04:38:19;99735.44;;;17.89;43.54
12963;BME280;6546;49.882;8.666;2023-06-14T04:40:49;99726.41;;;17.85;43.44
12963;BME280;6546;49.882;8.666;2023-06-14T04:43:18;99722.09;;;17.91;43.40
12963;BME280;6546;49.882;8.666;2023-06-14T04:45:51;99728.81;;;17.87;43.31
12963;BME280;6546;49.882;8.666;2023-06-14T04:48:20;99730.94;;;17.71;43.36
12963;BME280;6546;49.882;8.666;2023-06-14T04:50:48;99737.06;;;17.83;44.00
12963;BME280;6546;49.882;8.666;2023-06-14T04:53:18;99727.78;;;17.88;43.62
12963;BME280;6546;49.882;8.666;2023-06-14T04:55:46;99736.59;;;17.93;43.30
12963;BME280;6546;49.882;8.666;2023-06-14T04:58:13;99739.56;;;17.78;43.89
12963;BME280;6546;49.882;8.666;2023-06-14T05:00:40;99747.06;;;17.93;43.79
12963;BME280;6546;49.882;8.666;2023-06-14T05:03:07;99745.84;;;17.96;43.42
12963;BME280;6546;49.882;8.666;2023-06-14T05:05:34;99750.34;;;18.07;43.28
12963;BME280;6546;49.882;8.666;2023-06-14T05:08:02;99754.50;;;18.14;43.16
12963;BME280;6546;49.882;8.666;2023-06-14T05:10:29;99757.31;;;18.13;43.26
12963;BME280;6546;49.882;8.666;2023-06-14T05:12:56;99757.78;;;18.28;43.00
12963;BME280;6546;49.882;8.666;2023-06-14T05:15:22;99762.84;;;18.23;42.99
12963;BME280;6546;49.882;8.666;2023-06-14T05:17:50;99749.19;;;18.21;43.14
12963;BME280;6546;49.882;8.666;2023-06-14T05:20:20;99754.72;;;18.31;42.90
12963;BME280;6546;49.882;8.666;2023-06-14T05:22:48;99759.13;;;18.49;42.94
12963;BME280;6546;49.882;8.666;2023-06-14T05:25:16;99759.50;;;18.52;43.66
12963;BME280;6546;49.882;8.666;2023-06-14T05:27:43;99760.81;;;18.61;42.62
12963;BME280;6546;49.882;8.666;2023-06-14T05:30:10;99760.72;;;18.68;42.61
12963;BME280;6546;49.882;8.666;2023-06-14T05:32:37;99767.00;;;18.67;42.63
12963;BME280;6546;49.882;8.666;2023-06-14T05:35:05;99760.53;;;18.81;41.79
12963;BME280;6546;49.882;8.666;2023-06-14T05:37:32;99775.66;;;18.97;41.97
12963;BME280;6546;49.882;8.666;2023-06-14T05:39:58;99769.28;;;19.46;40.87
12963;BME280;6546;49.882;8.666;2023-06-14T05:42:26;99772.69;;;20.16;39.40
12963;BME280;6546;49.882;8.666;2023-06-14T05:44:53;99776.50;;;20.32;39.56
12963;BME280;6546;49.882;8.666;2023-06-14T05:47:20;99779.91;;;21.29;37.52
12963;BME280;6546;49.882;8.666;2023-06-14T05:49:47;99781.84;;;21.88;35.94
12963;BME280;6546;49.882;8.666;2023-06-14T05:52:14;99783.47;;;21.73;36.29
12963;BME280;6546;49.882;8.666;2023-06-14T05:54:40;99783.00;;;21.59;37.09
12963;BME280;6546;49.882;8.666;2023-06-14T05:57:07;99792.66;;;21.54;37.46
12963;BME280;6546;49.882;8.666;2023-06-14T05:59:35;99790.25;;;21.69;36.63
12963;BME280;6546;49.882;8.666;2023-06-14T06:02:02;99793.94;;;21.68;36.80
12963;BME280;6546;49.882;8.666;2023-06-14T06:04:29;99798.56;;;21.44;36.42
12963;BME280;6546;49.882;8.666;2023-06-14T06:06:56;99799.34;;;21.28;37.20
12963;BME280;6546;49.882;8.666;2023-06-14T06:09:23;99804.06;;;20.98;37.93
12963;BME280;6546;49.882;8.666;2023-06-14T06:11:49;99799.97;;;21.18;37.88
12963;BME280;6546;49.882;8.666;2023-06-14T06:14:16;99803.59;;;23.04;34.71
12963;BME280;6546;49.882;8.666;2023-06-14T06:16:44;99806.41;;;25.37;29.27
12963;BME280;6546;49.882;8.666;2023-06-14T06:19:11;99800.38;;;27.39;26.76
12963;BME280;6546;49.882;8.666;2023-06-14T06:21:37;99802.16;;;29.61;23.18
12963;BME280;6546;49.882;8.666;2023-06-14T06:24:05;99803.09;;;31.77;20.77
12963;BME280;6546;49.882;8.666;2023-06-14T06:26:32;99804.88;;;31.50;20.65
12963;BME280;6546;49.882;8.666;2023-06-14T06:28:58;99810.94;;;32.43;19.07
12963;BME280;6546;49.882;8.666;2023-06-14T06:31:25;99811.91;;;32.56;19.23
12963;BME280;6546;49.882;8.666;2023-06-14T06:33:54;99820.41;;;32.01;19.44
12963;BME280;6546;49.882;8.666;2023-06-14T06:36:21;99821.72;;;31.82;19.66
12963;BME280;6546;49.882;8.666;2023-06-14T06:38:48;99823.75;;;30.60;20.67
12963;BME280;6546;49.882;8.666;2023-06-14T06:41:14;99827.66;;;31.48;20.22
12963;BME280;6546;49.882;8.666;2023-06-14T06:43:41;99824.00;;;31.21;20.33
12963;BME280;6546;49.882;8.666;2023-06-14T06:46:08;99814.66;;;31.10;20.17
12963;BME280;6546;49.882;8.666;2023-06-14T06:48:34;99823.03;;;31.62;20.10
12963;BME280;6546;49.882;8.666;2023-06-14T06:51:02;99824.22;;;30.40;20.56
12963;BME280;6546;49.882;8.666;2023-06-14T06:53:30;99826.97;;;30.07;21.49
12963;BME280;6546;49.882;8.666;2023-06-14T06:55:57;99818.41;;;30.60;21.38
12963;BME280;6546;49.882;8.666;2023-06-14T06:58:24;99828.13;;;30.69;20.91
12963;BME280;6546;49.882;8.666;2023-06-14T07:00:50;99826.75;;;30.45;21.42
12963;BME280;6546;49.882;8.666;2023-06-14T07:03:17;99835.19;;;30.52;21.84
12963;BME280;6546;49.882;8.666;2023-06-14T07:05:44;99828.63;;;29.57;22.52
12963;BME280;6546;49.882;8.666;2023-06-14T07:08:12;99830.31;;;29.99;22.57
12963;BME280;6546;49.882;8.666;2023-06-14T07:10:39;99816.06;;;29.26;22.76
12963;BME280;6546;49.882;8.666;2023-06-14T07:13:06;99822.63;;;28.11;24.90
12963;BME280;6546;49.882;8.666;2023-06-14T07:15:32;99836.22;;;28.33;24.18
12963;BME280;6546;49.882;8.666;2023-06-14T07:17:59;99832.69;;;28.38;24.35
12963;BME280;6546;49.882;8.666;2023-06-14T07:20:25;99821.34;;;28.03;24.65
12963;BME280;6546;49.882;8.666;2023-06-14T07:22:52;99826.59;;;28.13;24.15
12963;BME280;6546;49.882;8.666;2023-06-14T07:25:20;99836.03;;;28.01;25.08
12963;BME280;6546;49.882;8.666;2023-06-14T07:27:47;99825.13;;;27.35;26.04
12963;BME280;6546;49.882;8.666;2023-06-14T07:30:14;99827.44;;;27.12;26.33
12963;BME280;6546;49.882;8.666;2023-06-14T07:32:40;99829.31;;;26.53;27.50
12963;BME280;6546;49.882;8.666;2023-06-14T07:35:08;99831.06;;;25.88;28.30
12963;BME280;6546;49.882;8.666;2023-06-14T07:37:34;99825.78;;;25.83;28.37
12963;BME280;6546;49.882;8.666;2023-06-14T07:40:01;99831.66;;;25.55;29.52
12963;BME280;6546;49.882;8.666;2023-06-14T07:42:33;99827.63;;;25.47;29.71
12963;BME280;6546;49.882;8.666;2023-06-14T07:45:01;99836.91;;;25.45;29.96
12963;BME280;6546;49.882;8.666;2023-06-14T07:47:27;99831.03;;;24.97;29.91
12963;BME280;6546;49.882;8.666;2023-06-14T07:49:54;99835.22;;;24.83;30.56
12963;BME280;6546;49.882;8.666;2023-06-14T07:52:21;99833.56;;;24.67;30.37
12963;BME280;6546;49.882;8.666;2023-06-14T07:54:48;99832.38;;;24.33;30.32
12963;BME280;6546;49.882;8.666;2023-06-14T07:57:14;99842.91;;;24.23;30.46
12963;BME280;6546;49.882;8.666;2023-06-14T07:59:42;99833.00;;;24.60;30.34
12963;BME280;6546;49.882;8.666;2023-06-14T08:02:09;99842.81;;;24.70;30.31
12963;BME280;6546;49.882;8.666;2023-06-14T08:04:35;99841.53;;;24.77;30.98
12963;BME280;6546;49.882;8.666;2023-06-14T08:07:03;99842.16;;;24.99;30.30
12963;BME280;6546;49.882;8.666;2023-06-14T08:09:30;99844.00;;;24.94;30.42
12963;BME280;6546;49.882;8.666;2023-06-14T08:11:57;99843.47;;;24.35;30.75
12963;BME280;6546;49.882;8.666;2023-06-14T08:14:23;99840.31;;;24.38;31.12
12963;BME280;6546;49.882;8.666;2023-06-14T08:16:51;99843.53;;;24.50;30.55
12963;BME280;6546;49.882;8.666;2023-06-14T08:19:19;99841.56;;;23.88;31.68
12963;BME280;6546;49.882;8.666;2023-06-14T08:21:45;99839.78;;;23.94;32.80
12963;BME280;6546;49.882;8.666;2023-06-14T08:24:12;99839.00;;;23.93;32.25
12963;BME280;6546;49.882;8.666;2023-06-14T08:26:39;99845.91;;;24.04;32.00
12963;BME280;6546;49.882;8.666;2023-06-14T08:29:06;99822.84;;;23.95;32.22
12963;BME280;6546;49.882;8.666;2023-06-14T08:31:33;99841.81;;;24.19;32.00
12963;BME280;6546;49.882;8.666;2023-06-14T08:34:01;99835.50;;;24.25;31.74
12963;BME280;6546;49.882;8.666;2023-06-14T08:36:28;99842.19;;;24.42;31.86
12963;BME280;6546;49.882;8.666;2023-06-14T08:38:55;99842.06;;;24.17;31.42
12963;BME280;6546;49.882;8.666;2023-06-14T08:41:22;99837.03;;;24.16;32.19
12963;BME280;6546;49.882;8.666;2023-06-14T08:43:50;99837.75;;;24.58;31.84
12963;BME280;6546;49.882;8.666;2023-06-14T08:46:17;99836.13;;;24.47;30.66
12963;BME280;6546;49.882;8.666;2023-06-14T08:48:46;99839.81;;;24.41;31.30
12963;BME280;6546;49.882;8.666;2023-06-14T08:51:18;99840.78;;;24.25;30.96
12963;BME280;6546;49.882;8.666;2023-06-14T08:53:51;99840.50;;;24.21;31.05
12963;BME280;6546;49.882;8.666;2023-06-14T08:56:18;99833.75;;;24.50;30.12
12963;BME280;6546;49.882;8.666;2023-06-14T08:58:46;99844.34;;;24.45;30.36
12963;BME280;6546;49.882;8.666;2023-06-14T09:01:13;99841.91;;;24.39;30.14
12963;BME280;6546;49.882;8.666;2023-06-14T09:03:42;99843.03;;;24.06;30.11
12963;BME280;6546;49.882;8.666;2023-06-14T09:06:10;99844.91;;;24.11;29.98
12963;BME280;6546;49.882;8.666;2023-06-14T09:08:41;99834.56;;;23.67;29.94
12963;BME280;6546;49.882;8.666;2023-06-14T09:11:11;99839.56;;;23.64;30.93
12963;BME280;6546;49.882;8.666;2023-06-14T09:13:38;99831.22;;;23.45;31.14
12963;BME280;6546;49.882;8.666;2023-06-14T09:16:05;99837.75;;;23.69;31.15
12963;BME280;6546;49.882;8.666;2023-06-14T09:18:36;99836.94;;;24.05;31.70
12963;BME280;6546;49.882;8.666;2023-06-14T09:21:03;99849.63;;;24.45;30.88
12963;BME280;6546;49.882;8.666;2023-06-14T09:23:29;99852.00;;;24.42;30.65
12963;BME280;6546;49.882;8.666;2023-06-14T09:26:01;99848.69;;;24.20;30.02
12963;BME280;6546;49.882;8.666;2023-06-14T09:28:27;99856.09;;;24.18;30.85
12963;BME280;6546;49.882;8.666;2023-06-14T09:30:54;99861.78;;;24.04;30.46
12963;BME280;6546;49.882;8.666;2023-06-14T09:33:21;99858.09;;;24.05;30.89
12963;BME280;6546;49.882;8.666;2023-06-14T09:35:51;99858.63;;;23.39;31.23
12963;BME280;6546;49.882;8.666;2023-06-14T09:38:18;99856.81;;;23.18;32.17
12963;BME280;6546;49.882;8.666;2023-06-14T09:40:45;99863.06;;;23.07;32.07
12963;BME280;6546;49.882;8.666;2023-06-14T09:43:13;99861.50;;;23.11;31.69
12963;BME280;6546;49.882;8.666;2023-06-14T09:45:40;99862.81;;;23.35;31.53
12963;BME280;6546;49.882;8.666;2023-06-14T09:48:11;99873.66;;;23.65;30.30
12963;BME280;6546;49.882;8.666;2023-06-14T09:50:44;99864.84;;;23.86;30.68
12963;BME280;6546;49.882;8.666;2023-06-14T09:53:11;99868.84;;;24.26;29.94
12963;BME280;6546;49.882;8.666;2023-06-14T09:55:40;99852.97;;;24.31;30.43
12963;BME280;6546;49.882;8.666;2023-06-14T09:58:08;99857.88;;;24.54;29.93
12963;BME280;6546;49.882;8.666;2023-06-14T10:00:39;99867.47;;;24.75;29.07
12963;BME280;6546;49.882;8.666;2023-06-14T10:03:11;99854.75;;;24.67;29.30
12963;BME280;6546;49.882;8.666;2023-06-14T10:05:39;99858.78;;;24.85;28.88
12963;BME280;6546;49.882;8.666;2023-06-14T10:08:09;99851.72;;;25.00;29.34
12963;BME280;6546;49.882;8.666;2023-06-14T10:10:38;99852.41;;;24.19;31.28
12963;BME280;6546;49.882;8.666;2023-06-14T10:13:06;99852.81;;;24.11;31.37
12963;BME280;6546;49.882;8.666;2023-06-14T10:15:37;99852.31;;;24.09;32.34
12963;BME280;6546;49.882;8.666;2023-06-14T10:18:13;99850.78;;;24.18;30.20
12963;BME280;6546;49.882;8.666;2023-06-14T10:20:52;99853.03;;;24.41;30.89
12963;BME280;6546;49.882;8.666;2023-06-14T10:23:23;99849.03;;;24.33;29.45
12963;BME280;6546;49.882;8.666;2023-06-14T10:25:54;99854.78;;;24.77;29.26
12963;BME280;6546;49.882;8.666;2023-06-14T10:28:22;99856.94;;;24.85;29.79
12963;BME280;6546;49.882;8.666;2023-06-14T10:31:07;99856.34;;;24.73;29.64
12963;BME280;6546;49.882;8.666;2023-06-14T10:33:35;99861.44;;;24.85;29.36
12963;BME280;6546;49.882;8.666;2023-06-14T10:36:09;99855.91;;;24.34;29.25
12963;BME280;6546;49.882;8.666;2023-06-14T10:38:37;99870.47;;;24.37;29.85
12963;BME280;6546;49.882;8.666;2023-06-14T10:41:05;99865.13;;;24.22;29.77
12963;BME280;6546;49.882;8.666;2023-06-14T10:43:32;99858.28;;;24.31;30.41
12963;BME280;6546;49.882;8.666;2023-06-14T10:46:17;99861.03;;;24.51;29.91
12963;BME280;6546;49.882;8.666;2023-06-14T10:48:47;99863.06;;;24.34;29.67
12963;BME280;6546;49.882;8.666;2023-06-14T10:51:18;99856.16;;;24.28;30.66
12963;BME280;6546;49.882;8.666;2023-06-14T10:53:48;99855.69;;;24.41;29.98
12963;BME280;6546;49.882;8.666;2023-06-14T10:56:27;99866.84;;;24.11;30.31
12963;BME280;6546;49.882;8.666;2023-06-14T10:58:54;99862.66;;;23.78;30.74
12963;BME280;6546;49.882;8.666;2023-06-14T11:01:32;99855.00;;;23.77;30.66
12963;BME280;6546;49.882;8.666;2023-06-14T11:04:08;99861.50;;;24.43;29.32
12963;BME280;6546;49.882;8.666;2023-06-14T11:06:45;99857.72;;;24.81;28.96
12963;BME280;6546;49.882;8.666;2023-06-14T11:09:29;99852.19;;;24.92;29.14
12963;BME280;6546;49.882;8.666;2023-06-14T11:12:04;99852.34;;;24.66;28.75
12963;BME280;6546;49.882;8.666;2023-06-14T11:14:32;99858.78;;;24.28;28.41
12963;BME280;6546;49.882;8.666;2023-06-14T11:17:00;99849.75;;;24.24;28.31
12963;BME280;6546;49.882;8.666;2023-06-14T11:19:27;99849.81;;;24.34;28.29
12963;BME280;6546;49.882;8.666;2023-06-14T11:21:55;99855.44;;;24.47;28.28
12963;BME280;6546;49.882;8.666;2023-06-14T11:24:21;99853.59;;;24.48;27.63
12963;BME280;6546;49.882;8.666;2023-06-14T11:26:48;99855.22;;;24.54;28.02
12963;BME280;6546;49.882;8.666;2023-06-14T11:29:15;99852.09;;;24.72;27.87
12963;BME280;6546;49.882;8.666;2023-06-14T11:31:43;99860.59;;;24.74;27.71
12963;BME280;6546;49.882;8.666;2023-06-14T11:34:12;99864.72;;;24.50;28.16
12963;BME280;6546;49.882;8.666;2023-06-14T11:36:39;99867.25;;;24.25;29.12
12963;BME280;6546;49.882;8.666;2023-06-14T11:39:06;99861.56;;;24.11;28.45
12963;BME280;6546;49.882;8.666;2023-06-14T11:41:36;99857.09;;;24.12;29.39
12963;BME280;6546;49.882;8.666;2023-06-14T11:44:03;99850.03;;;24.22;28.75
12963;BME280;6546;49.882;8.666;2023-06-14T11:46:31;99860.00;;;24.57;28.88
12963;BME280;6546;49.882;8.666;2023-06-14T11:48:57;99860.19;;;25.02;27.43
12963;BME280;6546;49.882;8.666;2023-06-14T11:51:30;99866.34;;;25.38;27.45
12963;BME280;6546;49.882;8.666;2023-06-14T11:53:56;99872.94;;;25.21;27.75
12963;BME280;6546;49.882;8.666;2023-06-14T11:56:23;99868.09;;;24.92;28.36
12963;BME280;6546;49.882;8.666;2023-06-14T11:58:50;99866.41;;;24.71;28.64
12963;BME280;6546;49.882;8.666;2023-06-14T12:01:17;99863.97;;;24.54;29.50
12963;BME280;6546;49.882;8.666;2023-06-14T12:03:48;99859.72;;;24.53;29.45
12963;BME280;6546;49.882;8.666;2023-06-14T12:06:15;99859.88;;;24.32;30.22
12963;BME280;6546;49.882;8.666;2023-06-14T12:08:44;99857.34;;;24.52;29.06
12963;BME280;6546;49.882;8.666;2023-06-14T12:11:14;99857.34;;;24.57;29.53
12963;BME280;6546;49.882;8.666;2023-06-14T12:13:42;99864.78;;;24.60;29.19
12963;BME280;6546;49.882;8.666;2023-06-14T12:16:10;99859.31;;;24.30;28.62
12963;BME280;6546;49.882;8.666;2023-06-14T12:18:38;99861.28;;;24.08;28.72
12963;BME280;6546;49.882;8.666;2023-06-14T12:21:07;99852.44;;;23.92;29.38
12963;BME280;6546;49.882;8.666;2023-06-14T12:23:44;99856.94;;;23.91;29.28
12963;BME280;6546;49.882;8.666;2023-06-14T12:26:13;99849.81;;;23.92;29.35
12963;BME280;6546;49.882;8.666;2023-06-14T12:28:41;99856.38;;;23.84;29.73
12963;BME280;6546;49.882;8.666;2023-06-14T12:31:08;99845.31;;;23.92;29.45
12963;BME280;6546;49.882;8.666;2023-06-14T12:33:35;99851.44;;;23.98;29.70
12963;BME280;6546;49.882;8.666;2023-06-14T12:36:03;99857.63;;;23.77;29.66
12963;BME280;6546;49.882;8.666;2023-06-14T12:38:30;99860.66;;;23.90;30.33
12963;BME280;6546;49.882;8.666;2023-06-14T12:40:58;99852.44;;;23.92;29.69
12963;BME280;6546;49.882;8.666;2023-06-14T12:43:25;99845.59;;;23.91;29.45
12963;BME280;6546;49.882;8.666;2023-06-14T12:45:52;99842.56;;;23.77;29.12
12963;BME280;6546;49.882;8.666;2023-06-14T12:48:19;99852.19;;;23.57;29.40
12963;BME280;6546;49.882;8.666;2023-06-14T12:50:46;99850.56;;;23.50;29.34
12963;BME280;6546;49.882;8.666;2023-06-14T12:53:12;99856.00;;;23.71;29.74
12963;BME280;6546;49.882;8.666;2023-06-14T12:55:39;99858.47;;;23.82;29.49
12963;BME280;6546;49.882;8.666;2023-06-14T12:58:07;99854.28;;;23.86;29.29
12963;BME280;6546;49.882;8.666;2023-06-14T13:00:34;99854.81;;;23.88;29.03
12963;BME280;6546;49.882;8.666;2023-06-14T13:03:01;99855.88;;;23.87;29.21
12963;BME280;6546;49.882;8.666;2023-06-14T13:05:28;99869.16;;;23.97;28.95
12963;BME280;6546;49.882;8.666;2023-06-14T13:07:56;99862.06;;;24.08;28.28
12963;BME280;6546;49.882;8.666;2023-06-14T13:10:23;99870.09;;;24.13;28.89
12963;BME280;6546;49.882;8.666;2023-06-14T13:12:49;99863.56;;;24.26;28.74
12963;BME280;6546;49.882;8.666;2023-06-14T13:15:17;99862.13;;;24.55;28.33